<?xml version='1.0' encoding='UTF-8'?>
<gpx xmlns="http://www.topografix.com/GPX/1/1" creator="www.balnam.be" version="1.1" xmlns:xsi="http://www.w3.org/2001/XMLSchema-instance" xsi:schemaLocation="http://www.topografix.com/GPX/1/1 http://www.topografix.com/GPX/1/1/gpx.xsd">
<trk>
<name>nvsch1</name>
<cmt>r</cmt>
<desc>Chairière Chemin n°1 Rue Grande / Rue de Liboichant</desc>
<link href="https://chemins.be/chairiere/chemin/1"/><trkseg>
<trkpt lat="49.862564" lon="4.951692"><time>2026-05-02T19:47:28Z</time></trkpt>
<trkpt lat="49.860930" lon="4.953049"><time>2026-05-02T19:57:28Z</time></trkpt>
<trkpt lat="49.860629" lon="4.953866"><time>2026-05-02T20:07:28Z</time></trkpt>
<trkpt lat="49.859290" lon="4.953808"><time>2026-05-02T20:17:28Z</time></trkpt>
<trkpt lat="49.858017" lon="4.953028"><time>2026-05-02T20:27:28Z</time></trkpt>
<trkpt lat="49.857315" lon="4.953214"><time>2026-05-02T20:37:28Z</time></trkpt>
</trkseg></trk>
<trk>
<name>nvsch1</name>
<cmt>s</cmt>
<desc>Chairière Chemin n°1 Rue Grande / Rue de Liboichant</desc>
<link href="https://chemins.be/chairiere/chemin/1"/><trkseg>
<trkpt lat="49.857315" lon="4.953214"><time>2026-05-02T20:37:28Z</time></trkpt>
<trkpt lat="49.857109" lon="4.953058"><time>2026-05-02T20:47:28Z</time></trkpt>
<trkpt lat="49.856973" lon="4.953251"><time>2026-05-02T20:57:28Z</time></trkpt>
<trkpt lat="49.857292" lon="4.954048"><time>2026-05-02T21:07:28Z</time></trkpt>
</trkseg></trk>
<trk>
<name>nvsch1</name>
<cmt>v</cmt>
<desc>Chairière Chemin n°1 Rue Grande / Rue de Liboichant</desc>
<link href="https://chemins.be/chairiere/chemin/1"/><trkseg>
<trkpt lat="49.857292" lon="4.954048"><time>2026-05-02T21:07:28Z</time></trkpt>
<trkpt lat="49.857542" lon="4.955709"><time>2026-05-02T21:17:28Z</time></trkpt>
<trkpt lat="49.857347" lon="4.957932"><time>2026-05-02T21:27:28Z</time></trkpt>
<trkpt lat="49.857199" lon="4.958274"><time>2026-05-02T21:37:28Z</time></trkpt>
<trkpt lat="49.857021" lon="4.959130"><time>2026-05-02T21:47:28Z</time></trkpt>
<trkpt lat="49.856153" lon="4.962812"><time>2026-05-02T21:57:28Z</time></trkpt>
<trkpt lat="49.855746" lon="4.964473"><time>2026-05-02T22:07:28Z</time></trkpt>
<trkpt lat="49.854881" lon="4.966618"><time>2026-05-02T22:17:28Z</time></trkpt>
<trkpt lat="49.854464" lon="4.967322"><time>2026-05-02T22:27:28Z</time></trkpt>
<trkpt lat="49.853856" lon="4.968315"><time>2026-05-02T22:37:28Z</time></trkpt>
</trkseg></trk>
<trk>
<name>nvsch1</name>
<cmt>r</cmt>
<desc>Chairière Chemin n°1 Rue Grande / Rue de Liboichant</desc>
<link href="https://chemins.be/chairiere/chemin/1"/><trkseg>
<trkpt lat="49.853856" lon="4.968315"><time>2026-05-02T22:37:28Z</time></trkpt>
<trkpt lat="49.852818" lon="4.969095"><time>2026-05-02T22:47:28Z</time></trkpt>
<trkpt lat="49.849884" lon="4.969614"><time>2026-05-02T22:57:28Z</time></trkpt>
<trkpt lat="49.847747" lon="4.969212"><time>2026-05-02T23:07:28Z</time></trkpt>
<trkpt lat="49.846748" lon="4.969394"><time>2026-05-02T23:17:28Z</time></trkpt>
</trkseg></trk>
<trk>
<name>nvsch1</name>
<cmt>v</cmt>
<desc>Chairière Chemin n°1 Rue Grande / Rue de Liboichant</desc>
<link href="https://chemins.be/chairiere/chemin/1"/><trkseg>
<trkpt lat="49.846748" lon="4.969394"><time>2026-05-02T23:17:28Z</time></trkpt>
<trkpt lat="49.845686" lon="4.969492"><time>2026-05-02T23:27:28Z</time></trkpt>
</trkseg>
</trk>
</gpx>